sensor_id;sensor_type;location;lat;lon;timestamp;temperature;humidity
10042;DHT22;5061;49.068;12.058;2023-12-20T00:00:01;2.30;99.90
10042;DHT22;5061;49.068;12.058;2023-12-20T00:03:21;2.30;99.90
10042;DHT22;5061;49.068;12.058;2023-12-20T00:06:42;2.30;99.90
10042;DHT22;5061;49.068;12.058;2023-12-20T00:10:03;2.30;99.90
10042;DHT22;5061;49.068;12.058;2023-12-20T00:13:23;2.30;99.90
10042;DHT22;5061;49.068;12.058;2023-12-20T00:16:44;2.30;99.90
10042;DHT22;5061;49.068;12.058;2023-12-20T00:20:05;2.40;99.90
10042;DHT22;5061;49.068;12.058;2023-12-20T00:23:26;2.40;99.90
10042;DHT22;5061;49.068;12.058;2023-12-20T00:26:47;2.40;99.90
10042;DHT22;5061;49.068;12.058;2023-12-20T00:30:08;2.50;99.90
10042;DHT22;5061;49.068;12.058;2023-12-20T00:33:29;2.50;99.90
10042;DHT22;5061;49.068;12.058;2023-12-20T00:36:50;2.60;99.90
10042;DHT22;5061;49.068;12.058;2023-12-20T00:40:11;2.60;99.90
10042;DHT22;5061;49.068;12.058;2023-12-20T00:43:31;2.60;99.90
10042;DHT22;5061;49.068;12.058;2023-12-20T00:46:52;2.70;99.90
10042;DHT22;5061;49.068;12.058;2023-12-20T00:50:12;2.70;99.90
10042;DHT22;5061;49.068;12.058;2023-12-20T00:53:33;2.70;99.90
10042;DHT22;5061;49.068;12.058;2023-12-20T00:56:54;2.70;99.90
10042;DHT22;5061;49.068;12.058;2023-12-20T01:00:14;2.70;99.90
10042;DHT22;5061;49.068;12.058;2023-12-20T01:03:35;2.80;99.90
10042;DHT22;5061;49.068;12.058;2023-12-20T01:06:56;2.80;99.90
10042;DHT22;5061;49.068;12.058;2023-12-20T01:10:17;2.80;99.90
10042;DHT22;5061;49.068;12.058;2023-12-20T01:13:37;2.80;99.90
10042;DHT22;5061;49.068;12.058;2023-12-20T01:16:58;2.90;99.90
10042;DHT22;5061;49.068;12.058;2023-12-20T01:20:18;2.90;99.90
10042;DHT22;5061;49.068;12.058;2023-12-20T01:23:40;2.90;99.90
10042;DHT22;5061;49.068;12.058;2023-12-20T01:27:01;2.90;99.90
10042;DHT22;5061;49.068;12.058;2023-12-20T01:30:21;2.90;99.90
10042;DHT22;5061;49.068;12.058;2023-12-20T01:33:42;2.90;99.90
10042;DHT22;5061;49.068;12.058;2023-12-20T01:37:02;3.00;99.90
10042;DHT22;5061;49.068;12.058;2023-12-20T01:40:24;3.00;99.90
10042;DHT22;5061;49.068;12.058;2023-12-20T01:43:45;3.00;99.90
10042;DHT22;5061;49.068;12.058;2023-12-20T01:47:06;3.00;99.90
10042;DHT22;5061;49.068;12.058;2023-12-20T01:50:27;3.00;99.90
10042;DHT22;5061;49.068;12.058;2023-12-20T01:53:48;2.90;99.90
10042;DHT22;5061;49.068;12.058;2023-12-20T01:57:10;3.00;99.90
10042;DHT22;5061;49.068;12.058;2023-12-20T02:00:31;3.00;99.90
10042;DHT22;5061;49.068;12.058;2023-12-20T02:03:52;3.00;99.90
10042;DHT22;5061;49.068;12.058;2023-12-20T02:07:13;3.00;99.90
10042;DHT22;5061;49.068;12.058;2023-12-20T02:10:34;3.00;99.90
10042;DHT22;5061;49.068;12.058;2023-12-20T02:13:54;3.00;99.90
10042;DHT22;5061;49.068;12.058;2023-12-20T02:17:16;3.00;99.90
10042;DHT22;5061;49.068;12.058;2023-12-20T02:20:36;3.00;99.90
10042;DHT22;5061;49.068;12.058;2023-12-20T02:23:57;3.00;99.90
10042;DHT22;5061;49.068;12.058;2023-12-20T02:27:19;3.00;99.90
10042;DHT22;5061;49.068;12.058;2023-12-20T02:30:40;3.00;99.90
10042;DHT22;5061;49.068;12.058;2023-12-20T02:34:00;3.00;99.90
10042;DHT22;5061;49.068;12.058;2023-12-20T02:37:21;3.00;99.90
10042;DHT22;5061;49.068;12.058;2023-12-20T02:40:42;3.00;99.90
10042;DHT22;5061;49.068;12.058;2023-12-20T02:44:03;3.00;99.90
10042;DHT22;5061;49.068;12.058;2023-12-20T02:47:24;3.00;99.90
10042;DHT22;5061;49.068;12.058;2023-12-20T02:50:46;3.00;99.90
10042;DHT22;5061;49.068;12.058;2023-12-20T02:54:07;3.00;99.90
10042;DHT22;5061;49.068;12.058;2023-12-20T02:57:28;3.00;99.90
10042;DHT22;5061;49.068;12.058;2023-12-20T03:00:48;3.00;99.90
10042;DHT22;5061;49.068;12.058;2023-12-20T03:04:09;3.00;99.90
10042;DHT22;5061;49.068;12.058;2023-12-20T03:07:30;3.10;99.90
10042;DHT22;5061;49.068;12.058;2023-12-20T03:10:50;3.00;99.90
10042;DHT22;5061;49.068;12.058;2023-12-20T03:14:11;3.10;99.90
10042;DHT22;5061;49.068;12.058;2023-12-20T03:17:31;3.10;99.90
10042;DHT22;5061;49.068;12.058;2023-12-20T03:20:52;3.10;99.90
10042;DHT22;5061;49.068;12.058;2023-12-20T03:24:13;3.10;99.90
10042;DHT22;5061;49.068;12.058;2023-12-20T03:27:33;3.10;99.90
10042;DHT22;5061;49.068;12.058;2023-12-20T03:30:54;3.10;99.90
10042;DHT22;5061;49.068;12.058;2023-12-20T03:34:14;3.10;99.90
10042;DHT22;5061;49.068;12.058;2023-12-20T03:37:35;3.10;99.90
10042;DHT22;5061;49.068;12.058;2023-12-20T03:40:56;3.20;99.90
10042;DHT22;5061;49.068;12.058;2023-12-20T03:44:17;3.20;99.90
10042;DHT22;5061;49.068;12.058;2023-12-20T03:47:37;3.20;99.90
10042;DHT22;5061;49.068;12.058;2023-12-20T03:50:58;3.20;99.90
10042;DHT22;5061;49.068;12.058;2023-12-20T03:54:18;3.20;99.90
10042;DHT22;5061;49.068;12.058;2023-12-20T03:57:39;3.20;99.90
10042;DHT22;5061;49.068;12.058;2023-12-20T04:00:59;3.20;99.90
10042;DHT22;5061;49.068;12.058;2023-12-20T04:04:20;3.20;99.90
10042;DHT22;5061;49.068;12.058;2023-12-20T04:07:41;3.20;99.90
10042;DHT22;5061;49.068;12.058;2023-12-20T04:11:01;3.20;99.90
10042;DHT22;5061;49.068;12.058;2023-12-20T04:14:22;3.20;99.90
10042;DHT22;5061;49.068;12.058;2023-12-20T04:17:43;3.30;99.90
10042;DHT22;5061;49.068;12.058;2023-12-20T04:21:04;3.20;99.90
10042;DHT22;5061;49.068;12.058;2023-12-20T04:24:24;3.20;99.90
10042;DHT22;5061;49.068;12.058;2023-12-20T04:27:45;3.30;99.90
10042;DHT22;5061;49.068;12.058;2023-12-20T04:31:06;3.30;99.90
10042;DHT22;5061;49.068;12.058;2023-12-20T04:34:26;3.30;99.90
10042;DHT22;5061;49.068;12.058;2023-12-20T04:37:47;3.30;99.90
10042;DHT22;5061;49.068;12.058;2023-12-20T04:41:09;3.30;99.90
10042;DHT22;5061;49.068;12.058;2023-12-20T04:44:30;3.30;99.90
10042;DHT22;5061;49.068;12.058;2023-12-20T04:47:51;3.30;99.90
10042;DHT22;5061;49.068;12.058;2023-12-20T04:51:12;3.30;99.90
10042;DHT22;5061;49.068;12.058;2023-12-20T04:54:32;3.30;99.90
10042;DHT22;5061;49.068;12.058;2023-12-20T04:58:04;3.30;99.90
10042;DHT22;5061;49.068;12.058;2023-12-20T05:01:51;3.30;99.90
10042;DHT22;5061;49.068;12.058;2023-12-20T05:05:14;3.30;99.90
10042;DHT22;5061;49.068;12.058;2023-12-20T05:08:38;3.30;99.90
10042;DHT22;5061;49.068;12.058;2023-12-20T05:11:58;3.30;99.90
10042;DHT22;5061;49.068;12.058;2023-12-20T05:15:19;3.30;99.90
10042;DHT22;5061;49.068;12.058;2023-12-20T05:18:40;3.30;99.90
10042;DHT22;5061;49.068;12.058;2023-12-20T05:22:01;3.30;99.90
10042;DHT22;5061;49.068;12.058;2023-12-20T05:25:22;3.30;99.90
10042;DHT22;5061;49.068;12.058;2023-12-20T05:28:43;3.30;99.90
10042;DHT22;5061;49.068;12.058;2023-12-20T05:32:04;3.30;99.90
10042;DHT22;5061;49.068;12.058;2023-12-20T05:35:25;3.30;99.90
10042;DHT22;5061;49.068;12.058;2023-12-20T05:38:45;3.30;99.90
10042;DHT22;5061;49.068;12.058;2023-12-20T05:42:06;3.30;99.90
10042;DHT22;5061;49.068;12.058;2023-12-20T05:45:26;3.30;99.90
10042;DHT22;5061;49.068;12.058;2023-12-20T05:48:47;3.30;99.90
10042;DHT22;5061;49.068;12.058;2023-12-20T05:52:09;3.30;99.90
10042;DHT22;5061;49.068;12.058;2023-12-20T05:55:29;3.30;99.90
10042;DHT22;5061;49.068;12.058;2023-12-20T05:58:50;3.40;99.90
10042;DHT22;5061;49.068;12.058;2023-12-20T06:02:11;3.40;99.90
10042;DHT22;5061;49.068;12.058;2023-12-20T06:05:31;3.40;99.90
10042;DHT22;5061;49.068;12.058;2023-12-20T06:08:52;3.40;99.90
10042;DHT22;5061;49.068;12.058;2023-12-20T06:12:13;3.40;99.90
10042;DHT22;5061;49.068;12.058;2023-12-20T06:15:33;3.40;99.90
10042;DHT22;5061;49.068;12.058;2023-12-20T06:18:54;3.50;99.90
10042;DHT22;5061;49.068;12.058;2023-12-20T06:22:15;3.50;99.90
10042;DHT22;5061;49.068;12.058;2023-12-20T06:25:36;3.50;99.90
10042;DHT22;5061;49.068;12.058;2023-12-20T06:28:57;3.40;99.90
10042;DHT22;5061;49.068;12.058;2023-12-20T06:32:17;3.50;99.90
10042;DHT22;5061;49.068;12.058;2023-12-20T06:35:38;3.40;99.90
10042;DHT22;5061;49.068;12.058;2023-12-20T06:39:02;3.40;99.90
10042;DHT22;5061;49.068;12.058;2023-12-20T06:42:25;3.40;99.90
10042;DHT22;5061;49.068;12.058;2023-12-20T06:45:49;3.50;99.90
10042;DHT22;5061;49.068;12.058;2023-12-20T06:49:18;3.40;99.90
10042;DHT22;5061;49.068;12.058;2023-12-20T06:52:41;3.50;99.90
10042;DHT22;5061;49.068;12.058;2023-12-20T06:56:14;3.40;99.90
10042;DHT22;5061;49.068;12.058;2023-12-20T06:59:41;3.40;99.90
10042;DHT22;5061;49.068;12.058;2023-12-20T07:03:08;3.40;99.90
10042;DHT22;5061;49.068;12.058;2023-12-20T07:06:30;3.40;99.90
10042;DHT22;5061;49.068;12.058;2023-12-20T07:09:53;3.50;99.90
10042;DHT22;5061;49.068;12.058;2023-12-20T07:13:14;3.50;99.90
10042;DHT22;5061;49.068;12.058;2023-12-20T07:16:44;3.40;99.90
10042;DHT22;5061;49.068;12.058;2023-12-20T07:20:12;3.40;99.90
10042;DHT22;5061;49.068;12.058;2023-12-20T07:23:38;3.40;99.90
10042;DHT22;5061;49.068;12.058;2023-12-20T07:27:03;3.40;99.90
10042;DHT22;5061;49.068;12.058;2023-12-20T07:30:30;3.50;99.90
10042;DHT22;5061;49.068;12.058;2023-12-20T07:33:51;3.50;99.90
10042;DHT22;5061;49.068;12.058;2023-12-20T07:37:20;3.50;99.90
10042;DHT22;5061;49.068;12.058;2023-12-20T07:40:41;3.50;99.90
10042;DHT22;5061;49.068;12.058;2023-12-20T07:44:02;3.40;99.90
10042;DHT22;5061;49.068;12.058;2023-12-20T07:47:22;3.50;99.90
10042;DHT22;5061;49.068;12.058;2023-12-20T07:50:43;3.40;99.90
10042;DHT22;5061;49.068;12.058;2023-12-20T07:54:07;3.50;99.90
10042;DHT22;5061;49.068;12.058;2023-12-20T07:57:31;3.40;99.90
10042;DHT22;5061;49.068;12.058;2023-12-20T08:00:52;3.40;99.90
10042;DHT22;5061;49.068;12.058;2023-12-20T08:04:12;3.40;99.90
10042;DHT22;5061;49.068;12.058;2023-12-20T08:07:33;3.40;99.90
10042;DHT22;5061;49.068;12.058;2023-12-20T08:10:54;3.40;99.90
10042;DHT22;5061;49.068;12.058;2023-12-20T08:14:15;3.40;99.90
10042;DHT22;5061;49.068;12.058;2023-12-20T08:17:36;3.40;99.90
10042;DHT22;5061;49.068;12.058;2023-12-20T08:20:56;3.40;99.90
10042;DHT22;5061;49.068;12.058;2023-12-20T08:24:17;3.50;99.90
10042;DHT22;5061;49.068;12.058;2023-12-20T08:27:40;3.50;99.90
10042;DHT22;5061;49.068;12.058;2023-12-20T08:31:01;3.50;99.90
10042;DHT22;5061;49.068;12.058;2023-12-20T08:34:23;3.50;99.90
10042;DHT22;5061;49.068;12.058;2023-12-20T08:37:44;3.50;99.90
10042;DHT22;5061;49.068;12.058;2023-12-20T08:41:05;3.50;99.90
10042;DHT22;5061;49.068;12.058;2023-12-20T08:44:26;3.50;99.90
10042;DHT22;5061;49.068;12.058;2023-12-20T08:47:46;3.50;99.90
10042;DHT22;5061;49.068;12.058;2023-12-20T08:51:07;3.60;99.90
10042;DHT22;5061;49.068;12.058;2023-12-20T08:54:29;3.50;99.90
10042;DHT22;5061;49.068;12.058;2023-12-20T08:57:49;3.50;99.90
10042;DHT22;5061;49.068;12.058;2023-12-20T09:01:11;3.60;99.90
10042;DHT22;5061;49.068;12.058;2023-12-20T09:04:31;3.60;99.90
10042;DHT22;5061;49.068;12.058;2023-12-20T09:07:52;3.60;99.90
10042;DHT22;5061;49.068;12.058;2023-12-20T09:11:13;3.70;99.90
10042;DHT22;5061;49.068;12.058;2023-12-20T09:14:34;3.60;99.90
10042;DHT22;5061;49.068;12.058;2023-12-20T09:17:54;3.70;99.90
10042;DHT22;5061;49.068;12.058;2023-12-20T09:21:15;3.70;99.90
10042;DHT22;5061;49.068;12.058;2023-12-20T09:24:36;3.70;99.90
10042;DHT22;5061;49.068;12.058;2023-12-20T09:27:56;3.80;99.90
10042;DHT22;5061;49.068;12.058;2023-12-20T09:31:17;3.80;99.90
10042;DHT22;5061;49.068;12.058;2023-12-20T09:34:37;3.80;99.90
10042;DHT22;5061;49.068;12.058;2023-12-20T09:37:58;3.80;99.90
10042;DHT22;5061;49.068;12.058;2023-12-20T09:41:19;3.90;99.90
10042;DHT22;5061;49.068;12.058;2023-12-20T09:44:39;3.90;99.90
10042;DHT22;5061;49.068;12.058;2023-12-20T09:48:03;3.90;99.90
10042;DHT22;5061;49.068;12.058;2023-12-20T09:51:26;3.90;99.90
10042;DHT22;5061;49.068;12.058;2023-12-20T09:54:49;3.90;99.90
10042;DHT22;5061;49.068;12.058;2023-12-20T09:58:11;3.90;99.90
10042;DHT22;5061;49.068;12.058;2023-12-20T10:01:33;4.00;99.90
10042;DHT22;5061;49.068;12.058;2023-12-20T10:04:54;4.00;99.90
10042;DHT22;5061;49.068;12.058;2023-12-20T10:08:15;4.10;99.90
10042;DHT22;5061;49.068;12.058;2023-12-20T10:11:39;4.10;99.90
10042;DHT22;5061;49.068;12.058;2023-12-20T10:15:00;4.10;99.90
10042;DHT22;5061;49.068;12.058;2023-12-20T10:18:20;4.20;99.90
10042;DHT22;5061;49.068;12.058;2023-12-20T10:21:41;4.10;99.90
10042;DHT22;5061;49.068;12.058;2023-12-20T10:25:02;4.20;99.90
10042;DHT22;5061;49.068;12.058;2023-12-20T10:28:22;4.20;99.90
10042;DHT22;5061;49.068;12.058;2023-12-20T10:31:47;4.30;99.90
10042;DHT22;5061;49.068;12.058;2023-12-20T10:35:09;4.40;99.90
10042;DHT22;5061;49.068;12.058;2023-12-20T10:38:30;4.40;99.90
10042;DHT22;5061;49.068;12.058;2023-12-20T10:41:50;4.40;99.90
10042;DHT22;5061;49.068;12.058;2023-12-20T10:45:11;4.50;99.90
10042;DHT22;5061;49.068;12.058;2023-12-20T10:48:32;4.50;99.90
10042;DHT22;5061;49.068;12.058;2023-12-20T10:51:54;4.40;99.90
10042;DHT22;5061;49.068;12.058;2023-12-20T10:55:17;4.40;99.90
10042;DHT22;5061;49.068;12.058;2023-12-20T10:58:40;4.50;99.90
10042;DHT22;5061;49.068;12.058;2023-12-20T11:02:05;4.50;99.90
10042;DHT22;5061;49.068;12.058;2023-12-20T11:05:49;4.50;99.90
10042;DHT22;5061;49.068;12.058;2023-12-20T11:16:07;4.30;99.90
10042;DHT22;5061;49.068;12.058;2023-12-20T11:19:28;4.30;99.90
10042;DHT22;5061;49.068;12.058;2023-12-20T11:22:55;4.30;99.90
10042;DHT22;5061;49.068;12.058;2023-12-20T11:26:16;4.30;99.90
10042;DHT22;5061;49.068;12.058;2023-12-20T11:29:51;4.30;99.90
10042;DHT22;5061;49.068;12.058;2023-12-20T11:33:13;4.40;99.90
10042;DHT22;5061;49.068;12.058;2023-12-20T11:36:34;4.30;99.90
10042;DHT22;5061;49.068;12.058;2023-12-20T11:39:56;4.40;99.90
10042;DHT22;5061;49.068;12.058;2023-12-20T11:43:38;4.40;99.90
10042;DHT22;5061;49.068;12.058;2023-12-20T11:46:59;4.40;99.90
10042;DHT22;5061;49.068;12.058;2023-12-20T11:50:21;4.40;99.90
10042;DHT22;5061;49.068;12.058;2023-12-20T11:53:42;4.40;99.90
10042;DHT22;5061;49.068;12.058;2023-12-20T11:57:03;4.50;99.90
10042;DHT22;5061;49.068;12.058;2023-12-20T12:00:24;4.50;99.90
10042;DHT22;5061;49.068;12.058;2023-12-20T12:03:45;4.60;99.90
10042;DHT22;5061;49.068;12.058;2023-12-20T12:07:06;4.70;99.90
10042;DHT22;5061;49.068;12.058;2023-12-20T12:10:26;4.80;99.90
10042;DHT22;5061;49.068;12.058;2023-12-20T12:13:47;4.80;99.90
10042;DHT22;5061;49.068;12.058;2023-12-20T12:17:15;4.80;99.90
10042;DHT22;5061;49.068;12.058;2023-12-20T12:20:35;4.80;99.90
10042;DHT22;5061;49.068;12.058;2023-12-20T12:24:09;4.80;99.90
10042;DHT22;5061;49.068;12.058;2023-12-20T12:27:30;4.70;99.90
10042;DHT22;5061;49.068;12.058;2023-12-20T12:30:57;4.70;99.90
10042;DHT22;5061;49.068;12.058;2023-12-20T12:34:19;4.60;99.90
10042;DHT22;5061;49.068;12.058;2023-12-20T12:37:40;4.60;99.90
10042;DHT22;5061;49.068;12.058;2023-12-20T12:41:02;4.50;99.90
10042;DHT22;5061;49.068;12.058;2023-12-20T12:44:22;4.60;99.90
10042;DHT22;5061;49.068;12.058;2023-12-20T12:47:46;4.60;99.90
10042;DHT22;5061;49.068;12.058;2023-12-20T12:51:07;4.60;99.90
10042;DHT22;5061;49.068;12.058;2023-12-20T12:54:32;4.70;99.90
10042;DHT22;5061;49.068;12.058;2023-12-20T12:57:53;4.70;99.90
10042;DHT22;5061;49.068;12.058;2023-12-20T13:01:14;4.70;99.90
10042;DHT22;5061;49.068;12.058;2023-12-20T13:04:35;4.70;99.90
10042;DHT22;5061;49.068;12.058;2023-12-20T13:07:56;4.60;99.90
10042;DHT22;5061;49.068;12.058;2023-12-20T13:11:16;4.50;99.90
10042;DHT22;5061;49.068;12.058;2023-12-20T13:14:37;4.50;99.90
10042;DHT22;5061;49.068;12.058;2023-12-20T13:17:58;4.60;99.90
10042;DHT22;5061;49.068;12.058;2023-12-20T13:21:18;4.60;99.90
10042;DHT22;5061;49.068;12.058;2023-12-20T13:24:39;4.60;99.90
10042;DHT22;5061;49.068;12.058;2023-12-20T13:28:01;4.50;99.90
10042;DHT22;5061;49.068;12.058;2023-12-20T13:31:23;4.50;99.90
10042;DHT22;5061;49.068;12.058;2023-12-20T13:34:43;4.50;99.90
10042;DHT22;5061;49.068;12.058;2023-12-20T13:38:04;4.50;99.90
10042;DHT22;5061;49.068;12.058;2023-12-20T13:41:25;4.40;99.90
10042;DHT22;5061;49.068;12.058;2023-12-20T13:44:45;4.50;99.90
10042;DHT22;5061;49.068;12.058;2023-12-20T13:48:07;4.50;99.90
10042;DHT22;5061;49.068;12.058;2023-12-20T13:51:28;4.40;99.90
10042;DHT22;5061;49.068;12.058;2023-12-20T13:54:49;4.50;99.90
10042;DHT22;5061;49.068;12.058;2023-12-20T13:58:12;4.40;99.90
10042;DHT22;5061;49.068;12.058;2023-12-20T14:01:33;4.30;99.90
10042;DHT22;5061;49.068;12.058;2023-12-20T14:04:53;4.20;99.90
10042;DHT22;5061;49.068;12.058;2023-12-20T14:08:14;4.20;99.90
10042;DHT22;5061;49.068;12.058;2023-12-20T14:11:34;4.20;99.90
10042;DHT22;5061;49.068;12.058;2023-12-20T14:15:01;4.10;99.90
10042;DHT22;5061;49.068;12.058;2023-12-20T14:18:22;4.00;99.90
10042;DHT22;5061;49.068;12.058;2023-12-20T14:21:42;4.00;99.90
10042;DHT22;5061;49.068;12.058;2023-12-20T14:25:06;4.00;99.90
10042;DHT22;5061;49.068;12.058;2023-12-20T14:28:27;4.00;99.90
10042;DHT22;5061;49.068;12.058;2023-12-20T14:31:47;4.00;99.90
10042;DHT22;5061;49.068;12.058;2023-12-20T14:35:10;3.90;99.90
10042;DHT22;5061;49.068;12.058;2023-12-20T14:38:34;3.90;99.90
10042;DHT22;5061;49.068;12.058;2023-12-20T14:41:54;3.80;99.90
10042;DHT22;5061;49.068;12.058;2023-12-20T14:45:15;3.80;99.90
10042;DHT22;5061;49.068;12.058;2023-12-20T14:48:36;3.80;99.90
10042;DHT22;5061;49.068;12.058;2023-12-20T14:51:57;3.70;99.90
10042;DHT22;5061;49.068;12.058;2023-12-20T14:55:18;3.70;99.90
10042;DHT22;5061;49.068;12.058;2023-12-20T14:58:39;3.80;99.90
10042;DHT22;5061;49.068;12.058;2023-12-20T15:02:00;3.80;99.90
10042;DHT22;5061;49.068;12.058;2023-12-20T15:05:25;3.80;99.90
10042;DHT22;5061;49.068;12.058;2023-12-20T15:08:47;3.80;99.90
10042;DHT22;5061;49.068;12.058;2023-12-20T15:12:08;3.80;99.90
10042;DHT22;5061;49.068;12.058;2023-12-20T15:15:29;3.80;99.90
10042;DHT22;5061;49.068;12.058;2023-12-20T15:18:50;3.70;99.90
10042;DHT22;5061;49.068;12.058;2023-12-20T15:22:17;3.60;99.90
10042;DHT22;5061;49.068;12.058;2023-12-20T15:25:37;3.60;99.90
10042;DHT22;5061;49.068;12.058;2023-12-20T15:28:58;3.50;99.90
10042;DHT22;5061;49.068;12.058;2023-12-20T15:32:19;3.50;99.90
10042;DHT22;5061;49.068;12.058;2023-12-20T15:35:40;3.40;99.90
10042;DHT22;5061;49.068;12.058;2023-12-20T15:39:01;3.30;99.90
10042;DHT22;5061;49.068;12.058;2023-12-20T15:42:22;3.20;99.90
10042;DHT22;5061;49.068;12.058;2023-12-20T15:45:42;3.20;99.90
10042;DHT22;5061;49.068;12.058;2023-12-20T15:49:04;3.20;99.90
10042;DHT22;5061;49.068;12.058;2023-12-20T15:52:25;3.00;99.90
10042;DHT22;5061;49.068;12.058;2023-12-20T15:55:46;3.00;99.90
10042;DHT22;5061;49.068;12.058;2023-12-20T15:59:07;2.90;99.90
10042;DHT22;5061;49.068;12.058;2023-12-20T16:02:28;2.90;99.90
10042;DHT22;5061;49.068;12.058;2023-12-20T16:05:49;2.80;99.90
10042;DHT22;5061;49.068;12.058;2023-12-20T16:09:09;2.80;99.90
10042;DHT22;5061;49.068;12.058;2023-12-20T16:12:30;2.90;99.90
10042;DHT22;5061;49.068;12.058;2023-12-20T16:15:51;2.90;99.90
10042;DHT22;5061;49.068;12.058;2023-12-20T16:19:12;3.00;99.90
10042;DHT22;5061;49.068;12.058;2023-12-20T16:22:33;3.00;99.90
10042;DHT22;5061;49.068;12.058;2023-12-20T16:25:53;3.10;99.90
10042;DHT22;5061;49.068;12.058;2023-12-20T16:29:14;3.10;99.90
10042;DHT22;5061;49.068;12.058;2023-12-20T16:32:34;3.20;99.90
10042;DHT22;5061;49.068;12.058;2023-12-20T16:35:55;3.20;99.90
10042;DHT22;5061;49.068;12.058;2023-12-20T16:39:18;3.20;99.90
10042;DHT22;5061;49.068;12.058;2023-12-20T16:42:39;3.20;99.90
10042;DHT22;5061;49.068;12.058;2023-12-20T16:46:00;3.20;99.90
10042;DHT22;5061;49.068;12.058;2023-12-20T16:49:20;3.30;99.90
10042;DHT22;5061;49.068;12.058;2023-12-20T16:52:41;3.30;99.90
10042;DHT22;5061;49.068;12.058;2023-12-20T16:56:02;3.30;99.90
10042;DHT22;5061;49.068;12.058;2023-12-20T16:59:23;3.30;99.90
10042;DHT22;5061;49.068;12.058;2023-12-20T17:02:44;3.30;99.90
10042;DHT22;5061;49.068;12.058;2023-12-20T17:06:05;3.40;99.90
10042;DHT22;5061;49.068;12.058;2023-12-20T17:09:26;3.50;99.90
10042;DHT22;5061;49.068;12.058;2023-12-20T17:12:47;3.40;99.90
10042;DHT22;5061;49.068;12.058;2023-12-20T17:16:08;3.50;99.90
10042;DHT22;5061;49.068;12.058;2023-12-20T17:19:28;3.50;99.90
10042;DHT22;5061;49.068;12.058;2023-12-20T17:22:51;3.40;99.90
10042;DHT22;5061;49.068;12.058;2023-12-20T17:26:12;3.40;99.90
10042;DHT22;5061;49.068;12.058;2023-12-20T17:29:33;3.50;99.90
10042;DHT22;5061;49.068;12.058;2023-12-20T17:32:53;3.50;99.90
10042;DHT22;5061;49.068;12.058;2023-12-20T17:36:14;3.50;99.90
10042;DHT22;5061;49.068;12.058;2023-12-20T17:39:37;3.50;99.90
10042;DHT22;5061;49.068;12.058;2023-12-20T17:42:57;3.50;99.90
10042;DHT22;5061;49.068;12.058;2023-12-20T17:46:18;3.50;99.90
10042;DHT22;5061;49.068;12.058;2023-12-20T17:49:38;3.50;99.90
10042;DHT22;5061;49.068;12.058;2023-12-20T17:52:59;3.60;99.90
10042;DHT22;5061;49.068;12.058;2023-12-20T17:56:20;3.50;99.90
10042;DHT22;5061;49.068;12.058;2023-12-20T17:59:40;3.50;99.90
10042;DHT22;5061;49.068;12.058;2023-12-20T18:03:03;3.60;99.90
10042;DHT22;5061;49.068;12.058;2023-12-20T18:06:24;3.60;99.90
10042;DHT22;5061;49.068;12.058;2023-12-20T18:09:44;3.60;99.90
10042;DHT22;5061;49.068;12.058;2023-12-20T18:13:05;3.60;99.90
10042;DHT22;5061;49.068;12.058;2023-12-20T18:16:26;3.50;99.90
10042;DHT22;5061;49.068;12.058;2023-12-20T18:19:46;3.60;99.90
10042;DHT22;5061;49.068;12.058;2023-12-20T18:23:07;3.60;99.90
10042;DHT22;5061;49.068;12.058;2023-12-20T18:26:28;3.60;99.90
10042;DHT22;5061;49.068;12.058;2023-12-20T18:29:49;3.60;99.90
10042;DHT22;5061;49.068;12.058;2023-12-20T18:33:09;3.60;99.90
10042;DHT22;5061;49.068;12.058;2023-12-20T18:36:30;3.60;99.90
10042;DHT22;5061;49.068;12.058;2023-12-20T18:39:50;3.70;99.90
10042;DHT22;5061;49.068;12.058;2023-12-20T18:43:11;3.70;99.90
10042;DHT22;5061;49.068;12.058;2023-12-20T18:46:32;3.70;99.90
10042;DHT22;5061;49.068;12.058;2023-12-20T18:49:52;3.60;99.90
10042;DHT22;5061;49.068;12.058;2023-12-20T18:53:13;3.60;99.90
10042;DHT22;5061;49.068;12.058;2023-12-20T18:56:34;3.70;99.90
10042;DHT22;5061;49.068;12.058;2023-12-20T18:59:57;3.70;99.90
10042;DHT22;5061;49.068;12.058;2023-12-20T19:03:18;3.70;99.90
10042;DHT22;5061;49.068;12.058;2023-12-20T19:06:39;3.70;99.90
10042;DHT22;5061;49.068;12.058;2023-12-20T19:10:00;3.70;99.90
10042;DHT22;5061;49.068;12.058;2023-12-20T19:13:21;3.70;99.90
10042;DHT22;5061;49.068;12.058;2023-12-20T19:16:42;3.60;99.90
10042;DHT22;5061;49.068;12.058;2023-12-20T19:20:03;3.60;99.90
10042;DHT22;5061;49.068;12.058;2023-12-20T19:23:25;3.60;99.90
10042;DHT22;5061;49.068;12.058;2023-12-20T19:26:47;3.50;99.90
10042;DHT22;5061;49.068;12.058;2023-12-20T19:30:08;3.50;99.90
10042;DHT22;5061;49.068;12.058;2023-12-20T19:33:35;3.50;99.90
10042;DHT22;5061;49.068;12.058;2023-12-20T19:36:57;3.40;99.90
10042;DHT22;5061;49.068;12.058;2023-12-20T19:40:18;3.40;99.90
10042;DHT22;5061;49.068;12.058;2023-12-20T19:43:39;3.30;99.90
10042;DHT22;5061;49.068;12.058;2023-12-20T19:47:02;3.30;99.90
10042;DHT22;5061;49.068;12.058;2023-12-20T19:50:23;3.20;99.90
10042;DHT22;5061;49.068;12.058;2023-12-20T19:53:44;3.20;99.90
10042;DHT22;5061;49.068;12.058;2023-12-20T19:57:04;3.20;99.90
10042;DHT22;5061;49.068;12.058;2023-12-20T20:00:25;3.20;99.90
10042;DHT22;5061;49.068;12.058;2023-12-20T20:03:46;3.20;99.90
10042;DHT22;5061;49.068;12.058;2023-12-20T20:07:06;3.20;99.90
10042;DHT22;5061;49.068;12.058;2023-12-20T20:10:33;3.20;99.90
10042;DHT22;5061;49.068;12.058;2023-12-20T20:13:54;3.10;99.90
10042;DHT22;5061;49.068;12.058;2023-12-20T20:17:16;3.10;99.90
10042;DHT22;5061;49.068;12.058;2023-12-20T20:20:37;3.10;99.90
10042;DHT22;5061;49.068;12.058;2023-12-20T20:23:58;3.10;99.90
10042;DHT22;5061;49.068;12.058;2023-12-20T20:27:19;3.10;99.90
10042;DHT22;5061;49.068;12.058;2023-12-20T20:30:42;3.10;99.90
10042;DHT22;5061;49.068;12.058;2023-12-20T20:34:03;3.10;99.90
10042;DHT22;5061;49.068;12.058;2023-12-20T20:37:24;3.00;99.90
10042;DHT22;5061;49.068;12.058;2023-12-20T20:40:47;3.00;99.90
10042;DHT22;5061;49.068;12.058;2023-12-20T20:44:11;3.00;99.90
10042;DHT22;5061;49.068;12.058;2023-12-20T20:47:34;3.00;99.90
10042;DHT22;5061;49.068;12.058;2023-12-20T20:51:01;3.00;99.90
10042;DHT22;5061;49.068;12.058;2023-12-20T20:54:42;3.00;99.90
10042;DHT22;5061;49.068;12.058;2023-12-20T20:58:03;3.00;99.90
10042;DHT22;5061;49.068;12.058;2023-12-20T21:01:24;3.00;99.90
10042;DHT22;5061;49.068;12.058;2023-12-20T21:04:44;3.00;99.90
10042;DHT22;5061;49.068;12.058;2023-12-20T21:08:05;3.00;99.90
10042;DHT22;5061;49.068;12.058;2023-12-20T21:11:26;2.90;99.90
10042;DHT22;5061;49.068;12.058;2023-12-20T21:14:47;3.00;99.90
10042;DHT22;5061;49.068;12.058;2023-12-20T21:18:07;3.00;99.90
10042;DHT22;5061;49.068;12.058;2023-12-20T21:21:30;3.00;99.90
10042;DHT22;5061;49.068;12.058;2023-12-20T21:24:52;3.00;99.90
10042;DHT22;5061;49.068;12.058;2023-12-20T21:28:13;2.90;99.90
10042;DHT22;5061;49.068;12.058;2023-12-20T21:31:33;3.00;99.90
10042;DHT22;5061;49.068;12.058;2023-12-20T21:34:54;3.00;99.90
10042;DHT22;5061;49.068;12.058;2023-12-20T21:38:14;2.90;99.90